createdAt,value
2022-09-09T00:00:39.778Z,97411.06
2022-09-09T00:03:16.540Z,97410.66
2022-09-09T00:05:53.919Z,97411.94
2022-09-09T00:08:24.282Z,97409.78
2022-09-09T00:11:00.462Z,97413.53
2022-09-09T00:13:34.928Z,97411.84
2022-09-09T00:16:10.175Z,97422.50
2022-09-09T00:18:49.331Z,97425.81
2022-09-09T00:21:19.705Z,97409.94
2022-09-09T00:23:52.721Z,97396.91
2022-09-09T00:26:34.192Z,97428.31
2022-09-09T00:29:11.435Z,97418.69
2022-09-09T00:31:39.735Z,97426.50
2022-09-09T00:34:15.075Z,97426.44
2022-09-09T00:36:45.854Z,97434.22
2022-09-09T00:39:21.653Z,97426.28
2022-09-09T00:42:04.675Z,97423.69
2022-09-09T00:44:36.194Z,97418.69
2022-09-09T00:47:15.257Z,97414.91
2022-09-09T00:49:59.308Z,97424.72
2022-09-09T00:52:38.983Z,97422.69
2022-09-09T00:55:14.431Z,97427.97
2022-09-09T00:57:43.190Z,97426.28
2022-09-09T01:00:26.032Z,97414.16
2022-09-09T01:03:18.554Z,97413.38
2022-09-09T01:05:51.981Z,97402.72
2022-09-09T01:08:37.724Z,97414.56
2022-09-09T01:11:06.271Z,97419.78
2022-09-09T01:13:37.816Z,97424.47
2022-09-09T01:16:10.448Z,97424.72
2022-09-09T01:18:43.913Z,97427.81
2022-09-09T01:21:23.349Z,97430.31
2022-09-09T01:24:12.948Z,97408.47
2022-09-09T01:26:45.190Z,97412.66
2022-09-09T01:29:16.149Z,97398.19
2022-09-09T01:31:55.158Z,97436.97
2022-09-09T01:34:25.072Z,97421.03
2022-09-09T01:37:01.272Z,97431.84
2022-09-09T01:39:29.890Z,97412.19
2022-09-09T01:42:00.028Z,97441.41
2022-09-09T01:44:30.277Z,97435.91
2022-09-09T01:46:58.926Z,97405.16
2022-09-09T01:49:27.193Z,97438.06
2022-09-09T01:51:58.085Z,97433.63
2022-09-09T01:54:30.121Z,97367.06
2022-09-09T01:57:12.671Z,97427.25
2022-09-09T01:59:57.042Z,97401.00
2022-09-09T02:02:32.312Z,97429.19
2022-09-09T02:05:08.669Z,97428.25
2022-09-09T02:07:41.482Z,97413.41
2022-09-09T02:10:14.307Z,97427.91
2022-09-09T02:12:49.401Z,97432.09
2022-09-09T02:15:24.782Z,97427.44
2022-09-09T02:17:54.488Z,97436.28
2022-09-09T02:20:25.360Z,97429.69
2022-09-09T02:22:55.449Z,97433.31
2022-09-09T02:25:27.590Z,97433.22
2022-09-09T02:27:59.381Z,97423.28
2022-09-09T02:30:31.625Z,97438.28
2022-09-09T02:33:02.674Z,97436.09
2022-09-09T02:35:33.355Z,97427.53
2022-09-09T02:38:06.549Z,97442.06
2022-09-09T02:40:34.907Z,97438.38
2022-09-09T02:43:04.560Z,97443.16
2022-09-09T02:45:43.315Z,97446.34
2022-09-09T02:48:17.203Z,97452.94
2022-09-09T02:50:57.176Z,97441.91
2022-09-09T02:53:31.210Z,97459.41
2022-09-09T02:56:04.132Z,97458.16
2022-09-09T02:58:34.280Z,97461.38
2022-09-09T03:01:04.207Z,97468.41
2022-09-09T03:03:33.405Z,97463.38
2022-09-09T03:06:01.686Z,97459.66
2022-09-09T03:08:30.010Z,97467.97
2022-09-09T03:11:02.483Z,97464.34
2022-09-09T03:13:30.697Z,97457.94
2022-09-09T03:16:00.973Z,97448.31
2022-09-09T03:18:29.423Z,97457.56
2022-09-09T03:20:59.206Z,97447.38
2022-09-09T03:23:28.561Z,97446.69
2022-09-09T03:25:58.223Z,97448.72
2022-09-09T03:28:32.430Z,97439.44
2022-09-09T03:31:03.642Z,97441.56
2022-09-09T03:33:32.337Z,97449.94
2022-09-09T03:36:00.597Z,97458.78
2022-09-09T03:38:29.588Z,97452.34
2022-09-09T03:40:59.840Z,97464.03
2022-09-09T03:43:29.158Z,97454.31
2022-09-09T03:45:58.147Z,97455.03
2022-09-09T03:48:29.307Z,97457.03
2022-09-09T03:50:58.988Z,97461.22
2022-09-09T03:53:27.699Z,97460.66
2022-09-09T03:56:00.532Z,97485.63
2022-09-09T03:58:29.746Z,97430.59
2022-09-09T04:00:59.231Z,97468.78
2022-09-09T04:03:29.731Z,97449.94
2022-09-09T04:05:59.479Z,97453.47
2022-09-09T04:08:28.821Z,97471.47
2022-09-09T04:10:59.069Z,97470.47
2022-09-09T04:13:28.142Z,97464.44
2022-09-09T04:15:57.773Z,97451.53
2022-09-09T04:18:27.101Z,97381.09
2022-09-09T04:20:58.294Z,97451.72
2022-09-09T04:23:28.407Z,97455.69
2022-09-09T04:25:57.985Z,97421.19
2022-09-09T04:28:28.208Z,97457.84
2022-09-09T04:30:58.011Z,97459.78
2022-09-09T04:33:27.903Z,97455.38
2022-09-09T04:35:58.173Z,97453.50
2022-09-09T04:38:27.246Z,97430.97
2022-09-09T04:40:55.708Z,97443.94
2022-09-09T04:43:27.147Z,97432.84
2022-09-09T04:45:55.670Z,97439.88
2022-09-09T04:48:24.057Z,97415.59
2022-09-09T04:51:02.445Z,97397.94
2022-09-09T04:53:30.869Z,97443.84
2022-09-09T04:56:04.235Z,97435.63
2022-09-09T04:58:33.237Z,97329.31
2022-09-09T05:01:09.075Z,97430.88
2022-09-09T05:03:37.552Z,97444.88
2022-09-09T05:06:09.504Z,97457.81
2022-09-09T05:08:38.753Z,97451.34
2022-09-09T05:11:14.880Z,97451.59
2022-09-09T05:13:43.087Z,97449.78
2022-09-09T05:16:12.321Z,97440.97
2022-09-09T05:18:40.692Z,97438.84
2022-09-09T05:21:10.306Z,97430.53
2022-09-09T05:23:38.789Z,97440.56
2022-09-09T05:26:08.768Z,97440.34
2022-09-09T05:28:37.950Z,97443.19
2022-09-09T05:31:09.231Z,97447.06
2022-09-09T05:33:38.192Z,97445.00
2022-09-09T05:36:09.023Z,97433.44
2022-09-09T05:38:39.117Z,97443.84
2022-09-09T05:41:08.212Z,97458.03
2022-09-09T05:43:36.893Z,97436.19
2022-09-09T05:46:06.618Z,97446.59
2022-09-09T05:48:36.658Z,97442.56
2022-09-09T05:51:05.456Z,97446.97
2022-09-09T05:53:35.490Z,97444.25
2022-09-09T05:56:07.443Z,97412.16
2022-09-09T05:58:36.842Z,97455.28
2022-09-09T06:01:07.744Z,97449.94
2022-09-09T06:03:37.007Z,97451.84
2022-09-09T06:06:07.467Z,97454.91
2022-09-09T06:08:38.313Z,97444.00
2022-09-09T06:11:10.035Z,97459.25
2022-09-09T06:13:40.088Z,97450.91
2022-09-09T06:16:10.489Z,97419.09
2022-09-09T06:18:38.740Z,97441.91
2022-09-09T06:21:08.522Z,97448.84
2022-09-09T06:23:37.252Z,97455.94
2022-09-09T06:26:09.191Z,97455.34
2022-09-09T06:28:38.777Z,97458.09
2022-09-09T06:31:09.315Z,97448.81
2022-09-09T06:33:42.181Z,97452.06
2022-09-09T06:36:14.112Z,97442.09
2022-09-09T06:38:43.131Z,97464.53
2022-09-09T06:41:14.492Z,97459.97
2022-09-09T06:43:43.317Z,97460.81
2022-09-09T06:46:14.642Z,97465.00
2022-09-09T06:48:43.247Z,97418.06
2022-09-09T06:51:13.814Z,97458.38
2022-09-09T06:53:43.559Z,97399.63
2022-09-09T06:56:24.306Z,97463.03
2022-09-09T06:58:53.552Z,97457.16
2022-09-09T07:01:23.061Z,97442.75
2022-09-09T07:03:52.935Z,97466.63
2022-09-09T07:06:23.020Z,97467.41
2022-09-09T07:08:56.624Z,97479.03
2022-09-09T07:11:28.522Z,97472.69
2022-09-09T07:13:58.046Z,97473.06
2022-09-09T07:16:26.845Z,97385.63
2022-09-09T07:18:59.000Z,97475.81
2022-09-09T07:21:28.840Z,97473.25
2022-09-09T07:23:57.259Z,97468.72
2022-09-09T07:26:28.577Z,97465.03
2022-09-09T07:28:58.280Z,97471.75
2022-09-09T07:31:28.790Z,97466.25
2022-09-09T07:33:56.947Z,97476.69
2022-09-09T07:36:32.526Z,97473.28
2022-09-09T07:39:02.934Z,97426.94
2022-09-09T07:41:35.415Z,97471.00
2022-09-09T07:44:07.790Z,97397.19
2022-09-09T07:46:37.528Z,97491.66
2022-09-09T07:49:05.780Z,97479.22
2022-09-09T07:51:36.262Z,97426.09
2022-09-09T07:54:06.537Z,97454.78
2022-09-09T07:56:36.585Z,97487.88
2022-09-09T07:59:07.307Z,97486.53
2022-09-09T08:01:38.614Z,97495.84
2022-09-09T08:04:09.651Z,97410.19
2022-09-09T08:06:40.377Z,97484.81
2022-09-09T08:09:09.762Z,97496.56
2022-09-09T08:11:40.555Z,97478.66
2022-09-09T08:14:10.160Z,97477.16
2022-09-09T08:16:40.649Z,97488.25
2022-09-09T08:19:09.831Z,97489.28
2022-09-09T08:21:41.104Z,97493.50
2022-09-09T08:24:11.569Z,97490.25
2022-09-09T08:26:43.728Z,97494.41
2022-09-09T08:29:14.887Z,97429.56
2022-09-09T08:31:45.597Z,97517.81
2022-09-09T08:34:14.322Z,97513.16
2022-09-09T08:36:44.434Z,97485.00
2022-09-09T08:39:14.633Z,97514.47
2022-09-09T08:42:22.491Z,97507.56
2022-09-09T08:45:06.849Z,97510.50
2022-09-09T08:47:50.437Z,97371.16
2022-09-09T08:50:27.842Z,97511.41
2022-09-09T08:53:03.818Z,97474.59
2022-09-09T08:55:41.150Z,97516.47
2022-09-09T08:58:15.342Z,97388.00
2022-09-09T09:01:05.693Z,97485.41
2022-09-09T09:03:46.984Z,97506.09
2022-09-09T09:06:37.310Z,97514.44
2022-09-09T09:09:10.731Z,97528.81
2022-09-09T09:11:41.780Z,97513.97
2022-09-09T09:14:18.668Z,97511.63
2022-09-09T09:16:53.374Z,97500.56
2022-09-09T09:19:23.926Z,97502.97
2022-09-09T09:21:59.748Z,97498.53
2022-09-09T09:24:37.166Z,97478.53
2022-09-09T09:27:15.464Z,97499.66
2022-09-09T09:30:10.881Z,97467.47
2022-09-09T09:32:37.489Z,97498.50
2022-09-09T09:35:12.951Z,97490.16
2022-09-09T09:40:35.236Z,97481.59
2022-09-09T09:43:08.983Z,97486.50
2022-09-09T09:45:55.191Z,97485.47
2022-09-09T09:48:34.928Z,97497.28
2022-09-09T09:51:08.375Z,97488.22
2022-09-09T09:53:40.179Z,97488.22
2022-09-09T09:56:11.578Z,97494.56
2022-09-09T09:58:54.829Z,97466.81
2022-09-09T10:01:26.739Z,97463.41
2022-09-09T10:03:56.558Z,97454.34
2022-09-09T10:06:35.750Z,97437.88
2022-09-09T10:09:08.900Z,97419.59
2022-09-09T10:11:49.387Z,97468.97
2022-09-09T10:14:23.060Z,97476.22
2022-09-09T10:17:07.331Z,97453.84
2022-09-09T10:19:37.266Z,97477.56
2022-09-09T10:22:16.397Z,97478.13
2022-09-09T10:25:07.254Z,97471.84
2022-09-09T10:27:45.411Z,97461.78
2022-09-09T10:30:19.442Z,97455.47
2022-09-09T10:33:00.198Z,97437.75
2022-09-09T10:35:34.548Z,97433.75
2022-09-09T10:38:20.306Z,97456.34
2022-09-09T10:41:16.546Z,97452.84
2022-09-09T10:44:06.261Z,97442.63
2022-09-09T10:46:48.417Z,97422.56
2022-09-09T10:49:30.486Z,97454.28
2022-09-09T10:52:07.745Z,97380.75
2022-09-09T10:54:50.525Z,97461.84
2022-09-09T10:57:29.740Z,97450.50
2022-09-09T11:00:01.104Z,97415.78
2022-09-09T11:02:31.123Z,97427.44
2022-09-09T11:05:05.156Z,97437.16
2022-09-09T11:07:42.546Z,97435.44
2022-09-09T11:10:26.185Z,97425.94
2022-09-09T11:13:00.383Z,97434.13
2022-09-09T11:15:37.368Z,97431.44
2022-09-09T11:18:08.922Z,97422.44
2022-09-09T11:20:39.504Z,97439.53
2022-09-09T11:23:14.335Z,97419.97
2022-09-09T11:25:46.853Z,97391.59
2022-09-09T11:28:30.761Z,97423.31
2022-09-09T11:31:23.348Z,97399.44
2022-09-09T11:34:09.403Z,97415.72
2022-09-09T11:37:02.006Z,97393.63
2022-09-09T11:40:00.252Z,97400.84
2022-09-09T11:42:28.618Z,97379.31
2022-09-09T11:44:57.918Z,97388.47
2022-09-09T11:47:31.079Z,97398.56
2022-09-09T11:50:13.430Z,97387.25
2022-09-09T11:52:46.968Z,97394.19
2022-09-09T11:55:32.241Z,97397.69
2022-09-09T11:58:01.463Z,97354.25
2022-09-09T12:00:39.313Z,97368.22
2022-09-09T12:03:10.117Z,97380.22
2022-09-09T12:05:41.278Z,97371.13
2022-09-09T12:08:13.765Z,97295.06
2022-09-09T12:10:42.992Z,97363.59
2022-09-09T12:13:18.799Z,97285.81
2022-09-09T12:15:51.127Z,97358.25
2022-09-09T12:18:26.347Z,97303.16
2022-09-09T12:21:01.925Z,97365.75
2022-09-09T12:23:41.218Z,97277.59
2022-09-09T12:26:29.739Z,97348.19
2022-09-09T12:29:07.905Z,97359.59
2022-09-09T12:31:45.761Z,97264.47
2022-09-09T12:34:18.834Z,97115.09
2022-09-09T12:36:53.977Z,97331.19
2022-09-09T12:39:31.449Z,97333.84
2022-09-09T12:41:59.969Z,97315.66
2022-09-09T12:44:30.225Z,97335.78
2022-09-09T12:47:01.665Z,97262.63
2022-09-09T12:49:35.424Z,97326.84
2022-09-09T12:52:07.038Z,97335.78
2022-09-09T12:54:38.875Z,97342.22
2022-09-09T12:57:07.990Z,97324.13
2022-09-09T12:59:41.490Z,97252.09
2022-09-09T13:02:21.142Z,97215.28
2022-09-09T13:04:51.576Z,97321.94
2022-09-09T13:07:20.955Z,97326.19
2022-09-09T13:09:51.594Z,97322.16
2022-09-09T13:12:23.690Z,97327.75
2022-09-09T13:14:54.628Z,97312.19
2022-09-09T13:17:24.762Z,97295.81
2022-09-09T13:19:54.963Z,97296.91
2022-09-09T13:22:34.152Z,97258.19
2022-09-09T13:25:07.758Z,97291.84
2022-09-09T13:27:40.128Z,97304.44
2022-09-09T13:30:24.931Z,97263.22
2022-09-09T13:33:06.806Z,97299.84
2022-09-09T13:35:35.723Z,97293.28
2022-09-09T13:38:11.070Z,97300.91
2022-09-09T13:40:40.845Z,97282.19
2022-09-09T13:43:24.110Z,97289.25
2022-09-09T13:45:57.509Z,97299.91
2022-09-09T13:48:26.852Z,97300.00
2022-09-09T13:51:00.869Z,97200.81
2022-09-09T13:53:29.413Z,97215.00
2022-09-09T13:55:59.905Z,97291.28
2022-09-09T13:58:28.387Z,97278.88
2022-09-09T14:00:56.837Z,97251.72
2022-09-09T14:03:25.134Z,97277.25
2022-09-09T14:05:55.411Z,97282.91
2022-09-09T14:08:27.294Z,97291.84
2022-09-09T14:10:58.558Z,97281.78
2022-09-09T14:13:28.158Z,97265.06
2022-09-09T14:15:56.667Z,97268.56
2022-09-09T14:18:27.974Z,97285.81
2022-09-09T14:20:56.297Z,97282.00
2022-09-09T14:23:25.545Z,97280.75
2022-09-09T14:25:54.127Z,97269.16
2022-09-09T14:28:34.246Z,97286.19
2022-09-09T14:31:11.961Z,97288.88
2022-09-09T14:33:40.203Z,97295.91
2022-09-09T14:36:09.026Z,97186.56
2022-09-09T14:38:40.602Z,97299.69
2022-09-09T14:41:09.172Z,97302.66
2022-09-09T14:43:37.417Z,97294.28
2022-09-09T14:46:09.219Z,97311.59
2022-09-09T14:48:41.640Z,97308.94
2022-09-09T14:51:11.500Z,97307.97
2022-09-09T14:53:39.756Z,97288.09
2022-09-09T14:56:09.927Z,97293.31
2022-09-09T14:58:39.043Z,97303.19
2022-09-09T15:01:08.909Z,97300.31
2022-09-09T15:03:38.902Z,97278.31
2022-09-09T15:06:09.749Z,97255.56
2022-09-09T15:08:42.272Z,97286.47
2022-09-09T15:11:12.492Z,97272.78
2022-09-09T15:13:42.625Z,97297.47
2022-09-09T15:16:12.652Z,97290.38
2022-09-09T15:18:43.984Z,97274.03
2022-09-09T15:21:12.771Z,97277.75
2022-09-09T15:23:41.777Z,97229.19
2022-09-09T15:26:10.725Z,97293.41
2022-09-09T15:28:40.478Z,97294.47
2022-09-09T15:31:12.090Z,97275.09
2022-09-09T15:33:41.733Z,97305.63
2022-09-09T15:36:17.174Z,97296.34
2022-09-09T15:38:45.369Z,97294.00
2022-09-09T15:41:13.807Z,97302.16
2022-09-09T15:43:46.048Z,97289.75
2022-09-09T15:46:29.612Z,97236.00
2022-09-09T15:49:05.309Z,97282.34
2022-09-09T15:51:43.110Z,97271.69
2022-09-09T15:54:14.198Z,97287.81
2022-09-09T15:56:43.051Z,97275.09
2022-09-09T15:59:12.558Z,97284.13
2022-09-09T16:01:41.917Z,97286.34
2022-09-09T16:04:11.999Z,97286.72
2022-09-09T16:06:40.375Z,97289.31
2022-09-09T16:09:11.172Z,97278.94
2022-09-09T16:11:40.781Z,97289.06
2022-09-09T16:14:09.307Z,97290.94
2022-09-09T16:16:37.954Z,97175.81
2022-09-09T16:19:11.363Z,97256.06
2022-09-09T16:21:44.220Z,97274.66
2022-09-09T16:24:14.725Z,97284.97
2022-09-09T16:26:46.265Z,97284.13
2022-09-09T16:29:15.715Z,97280.94
2022-09-09T16:31:44.254Z,97279.88
2022-09-09T16:34:12.844Z,97246.72
2022-09-09T16:36:43.692Z,97276.69
2022-09-09T16:39:14.005Z,97280.53
2022-09-09T16:41:44.994Z,97281.69
2022-09-09T16:44:14.917Z,97272.03
2022-09-09T16:46:45.041Z,97277.25
2022-09-09T16:49:15.802Z,97252.69
2022-09-09T16:51:48.169Z,97167.97
2022-09-09T16:54:18.202Z,97274.78
2022-09-09T16:56:48.964Z,97270.19
2022-09-09T16:59:19.508Z,97273.59
2022-09-09T17:01:49.511Z,97271.28
2022-09-09T17:04:21.724Z,97281.78
2022-09-09T17:06:53.374Z,97273.41
2022-09-09T17:09:23.623Z,97282.41
2022-09-09T17:11:53.375Z,97274.66
2022-09-09T17:14:23.173Z,97276.03
2022-09-09T17:16:51.799Z,97268.50
2022-09-09T17:19:20.741Z,97252.81
2022-09-09T17:22:14.943Z,97280.34
2022-09-09T17:24:39.629Z,97280.34
2022-09-09T17:27:08.369Z,97279.16
2022-09-09T17:29:37.215Z,97290.31
2022-09-09T17:32:06.547Z,97283.75
2022-09-09T17:34:35.063Z,97273.34
2022-09-09T17:37:03.421Z,97258.22
2022-09-09T17:39:31.646Z,97269.28
2022-09-09T17:42:01.478Z,97278.41
2022-09-09T17:44:30.006Z,97276.91
2022-09-09T17:46:58.266Z,97255.03
2022-09-09T17:49:26.860Z,97274.91
2022-09-09T17:51:56.314Z,97183.09
2022-09-09T17:54:24.646Z,97256.19
2022-09-09T17:56:53.411Z,97263.56
2022-09-09T17:59:23.028Z,97282.53
2022-09-09T18:01:52.062Z,97292.53
2022-09-09T18:04:21.388Z,97247.69
2022-09-09T18:06:51.268Z,97264.19
2022-09-09T18:09:21.825Z,97285.59
2022-09-09T18:11:54.687Z,97301.97
2022-09-09T18:14:26.388Z,97303.78
2022-09-09T18:16:55.247Z,97235.28
2022-09-09T18:19:25.275Z,97280.00
2022-09-09T18:21:56.445Z,97288.63
2022-09-09T18:24:27.013Z,97279.75
2022-09-09T18:26:55.418Z,97278.59
2022-09-09T18:29:26.428Z,97326.69
2022-09-09T18:31:55.808Z,97289.03
2022-09-09T18:34:26.230Z,97314.69
2022-09-09T18:36:56.330Z,97313.63
2022-09-09T18:39:27.534Z,97268.09
2022-09-09T18:41:59.830Z,97318.75
2022-09-09T18:44:31.740Z,97316.19
2022-09-09T18:47:00.769Z,97324.59
2022-09-09T18:49:29.124Z,97294.09
2022-09-09T18:51:58.055Z,97309.06
2022-09-09T18:54:29.962Z,97325.97
2022-09-09T18:57:01.227Z,97289.53
2022-09-09T18:59:31.535Z,97239.81
2022-09-09T19:01:59.938Z,97326.47
2022-09-09T19:04:28.885Z,97322.22
2022-09-09T19:06:59.200Z,97293.16
2022-09-09T19:09:29.475Z,97260.13
2022-09-09T19:11:58.597Z,97272.00
2022-09-09T19:14:28.184Z,97305.19
2022-09-09T19:16:58.183Z,97339.16
2022-09-09T19:19:28.651Z,97327.59
2022-09-09T19:21:58.062Z,97318.66
2022-09-09T19:24:28.877Z,97342.66
2022-09-09T19:27:00.320Z,97253.56
2022-09-09T19:29:31.626Z,97347.44
2022-09-09T19:34:52.298Z,97323.44
2022-09-09T19:37:20.779Z,97334.03
2022-09-09T19:39:50.641Z,97354.09
2022-09-09T19:42:19.289Z,97348.78
2022-09-09T19:44:47.893Z,97353.16
2022-09-09T19:47:18.248Z,97353.53
2022-09-09T19:49:47.592Z,97305.19
2022-09-09T19:52:17.402Z,97356.00
2022-09-09T19:54:45.721Z,97346.59
2022-09-09T19:57:14.415Z,97336.47
2022-09-09T19:59:42.817Z,97315.09
2022-09-09T20:02:15.738Z,97365.66
2022-09-09T20:04:45.733Z,97334.09
2022-09-09T20:07:14.983Z,97324.06
2022-09-09T20:09:43.289Z,97367.69
2022-09-09T20:12:11.534Z,97340.09
2022-09-09T20:14:40.269Z,97326.97
2022-09-09T20:17:08.727Z,97354.63
2022-09-09T20:19:36.935Z,97361.25
2022-09-09T20:22:07.459Z,97324.00
2022-09-09T20:24:37.117Z,97368.50
2022-09-09T20:27:07.186Z,97365.88
2022-09-09T20:29:35.358Z,97353.34
2022-09-09T20:32:03.902Z,97368.41
2022-09-09T20:34:32.122Z,97380.34
2022-09-09T20:37:02.793Z,97349.75
2022-09-09T20:39:32.450Z,97378.72
2022-09-09T20:42:00.674Z,97375.47
2022-09-09T20:44:29.765Z,97380.75
2022-09-09T20:47:02.914Z,97386.22
2022-09-09T20:49:31.228Z,97391.19
2022-09-09T20:51:59.382Z,97381.13
2022-09-09T20:54:30.373Z,97392.84
2022-09-09T20:57:00.578Z,97392.66
2022-09-09T20:59:30.934Z,97371.97
2022-09-09T21:02:01.096Z,97390.84
2022-09-09T21:04:29.594Z,97384.56
2022-09-09T21:06:57.994Z,97386.25
2022-09-09T21:09:26.374Z,97367.38
2022-09-09T21:11:54.725Z,97379.41
2022-09-09T21:14:24.332Z,97394.28
2022-09-09T21:16:52.621Z,97357.84
2022-09-09T21:19:21.144Z,97387.75
2022-09-09T21:21:49.525Z,97382.16
2022-09-09T21:24:18.018Z,97379.25
2022-09-09T21:26:46.366Z,97384.00
2022-09-09T21:29:14.740Z,97379.34
2022-09-09T21:31:44.781Z,97373.16
2022-09-09T21:34:15.525Z,97380.25
2022-09-09T21:36:43.847Z,97361.03
2022-09-09T21:39:12.185Z,97379.06
2022-09-09T21:41:40.725Z,97378.91
2022-09-09T21:44:11.856Z,97380.72
2022-09-09T21:46:40.158Z,97370.53
2022-09-09T21:49:10.287Z,97396.44
2022-09-09T21:51:38.487Z,97389.34
2022-09-09T21:54:07.613Z,97305.19
2022-09-09T21:56:36.172Z,97386.25
2022-09-09T21:59:05.003Z,97387.09
2022-09-09T22:01:34.464Z,97382.16
2022-09-09T22:04:03.076Z,97357.22
2022-09-09T22:06:32.913Z,97385.22
2022-09-09T22:09:02.942Z,97361.50
2022-09-09T22:11:31.546Z,97323.44
2022-09-09T22:13:59.802Z,97352.94
2022-09-09T22:16:28.023Z,97370.28
2022-09-09T22:18:59.247Z,97388.50
2022-09-09T22:21:29.051Z,97388.22
2022-09-09T22:24:01.264Z,97364.88
2022-09-09T22:26:32.938Z,97389.84
2022-09-09T22:29:01.516Z,97386.41
2022-09-09T22:31:30.040Z,97331.28
2022-09-09T22:33:58.522Z,97377.53
2022-09-09T22:36:27.271Z,97363.69
2022-09-09T22:38:56.116Z,97385.22
2022-09-09T22:41:26.245Z,97373.06
2022-09-09T22:43:54.824Z,97389.75
2022-09-09T22:46:23.778Z,97410.22
2022-09-09T22:48:52.060Z,97371.72
2022-09-09T22:51:20.226Z,97372.47
2022-09-09T22:53:49.317Z,97400.06
2022-09-09T22:56:19.452Z,97357.38
2022-09-09T22:58:55.832Z,97395.28
2022-09-09T23:01:25.419Z,97368.22
2022-09-09T23:03:55.112Z,97392.13
2022-09-09T23:06:24.684Z,97352.63
2022-09-09T23:08:56.034Z,97379.56
2022-09-09T23:11:26.416Z,97386.84
2022-09-09T23:14:00.337Z,97378.06
2022-09-09T23:16:31.305Z,97389.28
2022-09-09T23:19:01.058Z,97366.50
2022-09-09T23:21:30.242Z,97389.38
2022-09-09T23:24:01.919Z,97343.66
2022-09-09T23:26:30.268Z,97385.47
2022-09-09T23:29:02.553Z,97362.16
2022-09-09T23:31:38.076Z,97390.41
2022-09-09T23:34:07.124Z,97388.84
2022-09-09T23:36:35.924Z,97395.94
2022-09-09T23:39:06.783Z,97376.56
2022-09-09T23:41:40.359Z,97380.72
2022-09-09T23:44:12.965Z,97370.31
2022-09-09T23:46:41.263Z,97364.34
2022-09-09T23:49:10.135Z,97365.81
2022-09-09T23:51:39.585Z,97354.53
2022-09-09T23:54:09.897Z,97373.47
2022-09-09T23:56:40.563Z,97282.38
2022-09-09T23:59:10.566Z,97296.59
